Time;durP1;ratioP1;P1;durP2;ratioP2;P2;SDS_P1;SDS_P2;PMS_P1;PMS_P2;Temp;Humidity;BMP_temperature;BMP_pressure;BME280_temperature;BME280_humidity;BME280_pressure;Samples;Min_cycle;Max_cycle;Signal;HPM_P1;HPM_P2
2021/11/15 00:03:26;;;;;;;26.42;17.90;;;;;;;;;;10335616;28;20538;-74
2021/11/15 00:08:26;;;;;;;25.70;16.13;;;;;;;;;;10334950;28;20030;-74
2021/11/15 00:13:26;;;;;;;22.33;15.38;;;;;;;;;;10334855;28;20030;-74
2021/11/15 00:18:26;;;;;;;34.55;19.50;;;;;;;;;;10334538;28;20449;-74
2021/11/15 00:23:27;;;;;;;22.77;16.40;;;;;;;;;;10350109;28;20058;-74
2021/11/15 00:28:27;;;;;;;29.85;18.33;;;;;;;;;;10334403;28;20041;-74
2021/11/15 00:33:27;;;;;;;24.73;16.80;;;;;;;;;;10334316;28;20093;-74
2021/11/15 00:38:27;;;;;;;31.45;18.63;;;;;;;;;;10334755;28;20030;-74
2021/11/15 00:43:27;;;;;;;31.77;18.77;;;;;;;;;;10334109;28;20038;-74
2021/11/15 00:48:28;;;;;;;31.98;19.08;;;;;;;;;;10334052;28;20049;-74
2021/11/15 00:53:28;;;;;;;27.17;16.90;;;;;;;;;;10334446;28;20489;-74
2021/11/15 00:58:28;;;;;;;26.50;16.88;;;;;;;;;;10333905;28;20117;-74
2021/11/15 01:03:28;;;;;;;27.10;18.33;;;;;;;;;;10334976;28;20066;-74
2021/11/15 01:08:29;;;;;;;33.22;19.95;;;;;;;;;;10334732;28;20546;-75
2021/11/15 01:13:29;;;;;;;39.05;20.27;;;;;;;;;;10357579;28;20034;-74
2021/11/15 01:18:29;;;;;;;28.48;20.63;;;;;;;;;;10340938;28;20073;-74
2021/11/15 01:23:30;;;;;;;33.03;19.05;;;;;;;;;;10340528;28;20868;-74
2021/11/15 01:28:30;;;;;;;27.83;19.37;;;;;;;;;;10341035;28;20023;-74
2021/11/15 01:33:30;;;;;;;20.67;16.92;;;;;;;;;;10340350;28;20276;-74
2021/11/15 01:38:33;;;;;;;32.75;18.20;;;;;;;;;;10340577;28;20165;-74
2021/11/15 01:43:33;;;;;;;28.77;17.35;;;;;;;;;;10340846;28;20038;-74
2021/11/15 01:48:34;;;;;;;21.42;14.40;;;;;;;;;;10340268;28;20030;-74
2021/11/15 01:53:34;;;;;;;26.48;18.17;;;;;;;;;;10339334;28;20022;-74
2021/11/15 01:58:34;;;;;;;28.15;17.20;;;;;;;;;;10339867;28;20053;-74
2021/11/15 02:03:34;;;;;;;27.15;17.27;;;;;;;;;;10340132;28;20039;-74
2021/11/15 02:08:34;;;;;;;21.95;16.02;;;;;;;;;;10338781;28;20480;-74
2021/11/15 02:13:35;;;;;;;22.13;14.70;;;;;;;;;;10339135;28;20030;-74
2021/11/15 02:18:35;;;;;;;30.30;17.15;;;;;;;;;;10339093;28;20109;-74
2021/11/15 02:23:37;;;;;;;22.30;15.80;;;;;;;;;;10336914;28;20100;-74
2021/11/15 02:28:39;;;;;;;25.45;17.05;;;;;;;;;;10338689;28;20034;-74
2021/11/15 02:33:39;;;;;;;20.17;15.70;;;;;;;;;;10339019;28;20022;-74
2021/11/15 02:38:39;;;;;;;18.73;14.52;;;;;;;;;;10338286;28;20030;-74
2021/11/15 02:43:39;;;;;;;20.75;15.02;;;;;;;;;;10338126;28;20084;-74
2021/11/15 02:48:40;;;;;;;20.13;15.10;;;;;;;;;;10339090;28;20531;-74
2021/11/15 02:53:40;;;;;;;25.95;15.43;;;;;;;;;;10337687;28;20099;-74
2021/11/15 02:58:40;;;;;;;21.80;14.82;;;;;;;;;;10338100;28;20161;-74
2021/11/15 03:03:41;;;;;;;22.77;15.55;;;;;;;;;;10337876;28;20035;-74
2021/11/15 03:08:41;;;;;;;20.65;13.45;;;;;;;;;;10352368;28;20511;-74
2021/11/15 03:13:42;;;;;;;19.80;16.35;;;;;;;;;;10336955;28;20037;-74
2021/11/15 03:18:43;;;;;;;21.90;15.02;;;;;;;;;;10337917;28;20054;-74
2021/11/15 03:23:43;;;;;;;17.63;14.27;;;;;;;;;;10352437;28;20054;-74
2021/11/15 03:28:47;;;;;;;24.13;16.88;;;;;;;;;;10337664;28;20057;-74
2021/11/15 03:33:49;;;;;;;23.52;15.77;;;;;;;;;;10351148;28;20503;-74
2021/11/15 03:38:50;;;;;;;22.83;16.77;;;;;;;;;;10336052;28;20372;-75
2021/11/15 03:43:52;;;;;;;26.15;16.30;;;;;;;;;;10335901;28;20026;-74
2021/11/15 03:48:52;;;;;;;27.20;14.45;;;;;;;;;;10350626;28;20420;-74
2021/11/15 03:53:52;;;;;;;26.58;15.32;;;;;;;;;;10335428;28;20034;-74
2021/11/15 03:58:53;;;;;;;20.15;14.73;;;;;;;;;;10335291;28;20030;-74
2021/11/15 04:03:54;;;;;;;19.25;13.43;;;;;;;;;;10334936;28;20287;-74
2021/11/15 04:08:56;;;;;;;25.50;16.33;;;;;;;;;;10350600;28;20117;-74
2021/11/15 04:13:57;;;;;;;18.90;14.05;;;;;;;;;;10334080;28;20029;-74
2021/11/15 04:18:59;;;;;;;25.02;16.75;;;;;;;;;;10334663;28;20026;-73
2021/11/15 04:23:59;;;;;;;28.85;16.83;;;;;;;;;;10334338;28;20046;-74
2021/11/15 04:28:59;;;;;;;28.45;19.00;;;;;;;;;;10334338;28;20031;-74
2021/11/15 04:34:00;;;;;;;20.48;14.27;;;;;;;;;;10334780;28;20030;-74
2021/11/15 04:39:00;;;;;;;21.45;14.23;;;;;;;;;;10335374;28;20034;-74
2021/11/15 04:44:00;;;;;;;22.52;14.75;;;;;;;;;;10334675;28;20083;-74
2021/11/15 04:49:00;;;;;;;20.05;14.50;;;;;;;;;;10343042;28;20038;-74
2021/11/15 04:54:01;;;;;;;20.48;14.60;;;;;;;;;;10343319;28;20030;-74
2021/11/15 04:59:01;;;;;;;20.95;14.88;;;;;;;;;;10342053;28;20118;-74
2021/11/15 05:04:01;;;;;;;23.63;14.05;;;;;;;;;;10356389;28;20026;-74
2021/11/15 05:09:01;;;;;;;34.87;16.00;;;;;;;;;;10341766;28;20038;-74
2021/11/15 05:14:02;;;;;;;26.90;14.33;;;;;;;;;;10356675;28;20746;-74
2021/11/15 05:19:02;;;;;;;17.20;15.30;;;;;;;;;;10341424;28;20268;-74
2021/11/15 05:24:02;;;;;;;26.02;17.58;;;;;;;;;;10341679;28;20116;-74
2021/11/15 05:29:02;;;;;;;27.83;18.15;;;;;;;;;;10340325;28;20070;-74
2021/11/15 05:34:03;;;;;;;21.65;16.75;;;;;;;;;;10340876;28;20030;-74
2021/11/15 05:39:03;;;;;;;23.90;16.98;;;;;;;;;;10340643;28;20033;-74
2021/11/15 05:44:04;;;;;;;30.42;15.93;;;;;;;;;;10341363;28;20089;-74
2021/11/15 05:49:04;;;;;;;31.75;17.80;;;;;;;;;;10355571;28;20046;-73
2021/11/15 05:54:04;;;;;;;31.77;16.10;;;;;;;;;;10339953;28;20023;-74
2021/11/15 05:59:04;;;;;;;18.73;15.55;;;;;;;;;;10339823;28;20109;-73
2021/11/15 06:04:05;;;;;;;26.75;15.55;;;;;;;;;;10340146;28;20121;-74
2021/11/15 06:09:05;;;;;;;30.63;14.68;;;;;;;;;;10338104;28;20120;-74
2021/11/15 06:14:05;;;;;;;34.83;14.07;;;;;;;;;;10336914;28;20476;-74
2021/11/15 06:19:05;;;;;;;24.65;14.45;;;;;;;;;;10339481;28;20030;-74
2021/11/15 06:24:06;;;;;;;23.45;15.10;;;;;;;;;;10339722;28;20476;-74
2021/11/15 06:29:06;;;;;;;21.63;12.57;;;;;;;;;;10338674;28;20033;-75
2021/11/15 06:34:06;;;;;;;13.15;11.40;;;;;;;;;;10339506;28;20026;-75
2021/11/15 06:39:06;;;;;;;23.88;12.50;;;;;;;;;;10338923;28;20391;-79
2021/11/15 06:44:08;;;;;;;17.95;13.90;;;;;;;;;;10338136;28;20064;-80
2021/11/15 06:49:08;;;;;;;21.23;14.60;;;;;;;;;;10338518;28;20092;-75
2021/11/15 06:54:08;;;;;;;20.55;14.30;;;;;;;;;;10338149;28;20108;-74
2021/11/15 06:59:08;;;;;;;27.95;15.52;;;;;;;;;;10352594;28;20037;-74
2021/11/15 07:04:09;;;;;;;24.02;16.77;;;;;;;;;;10335553;28;20092;-74
2021/11/15 07:09:09;;;;;;;26.58;15.95;;;;;;;;;;10351467;28;20038;-74
2021/11/15 07:14:09;;;;;;;22.90;15.80;;;;;;;;;;10336687;28;20165;-74
2021/11/15 07:19:09;;;;;;;26.10;15.48;;;;;;;;;;10336287;28;20280;-74
2021/11/15 07:24:10;;;;;;;22.88;14.00;;;;;;;;;;10334245;28;20105;-75
2021/11/15 07:29:10;;;;;;;22.50;14.38;;;;;;;;;;10337096;28;20041;-74
2021/11/15 07:34:10;;;;;;;25.35;14.30;;;;;;;;;;10351602;28;20063;-74
2021/11/15 07:39:10;;;;;;;26.48;17.30;;;;;;;;;;10335196;28;20476;-75
2021/11/15 07:44:10;;;;;;;25.67;17.20;;;;;;;;;;10350491;28;20027;-75
2021/11/15 07:49:11;;;;;;;25.00;16.60;;;;;;;;;;10335035;28;20068;-74
2021/11/15 07:54:11;;;;;;;27.67;15.95;;;;;;;;;;10334996;28;20502;-75
2021/11/15 07:59:11;;;;;;;27.73;17.13;;;;;;;;;;10335026;28;20030;-74
2021/11/15 08:04:11;;;;;;;22.90;15.75;;;;;;;;;;10335231;28;20482;-74
2021/11/15 08:09:11;;;;;;;26.50;16.38;;;;;;;;;;10334385;28;20038;-74
2021/11/15 08:14:12;;;;;;;25.35;17.30;;;;;;;;;;10335162;28;20029;-75
2021/11/15 08:19:12;;;;;;;24.45;15.75;;;;;;;;;;10335049;28;20044;-74
2021/11/15 08:24:27;;;;;;;35.75;16.98;;;;;;;;;;10335050;28;20054;-74
2021/11/15 08:29:28;;;;;;;20.70;16.05;;;;;;;;;;10335045;28;20022;-74
2021/11/15 08:34:28;;;;;;;22.52;16.15;;;;;;;;;;10334198;28;20376;-74
2021/11/15 08:39:30;;;;;;;20.55;16.85;;;;;;;;;;10348419;28;20396;-74
2021/11/15 08:44:32;;;;;;;28.30;16.70;;;;;;;;;;10334846;28;20040;-75
2021/11/15 08:49:36;;;;;;;25.08;17.20;;;;;;;;;;10349407;28;20426;-74
2021/11/15 08:54:36;;;;;;;25.65;15.90;;;;;;;;;;10334683;28;20030;-75
2021/11/15 08:59:36;;;;;;;23.98;17.50;;;;;;;;;;10333525;28;20026;-75
2021/11/15 09:04:37;;;;;;;26.58;17.55;;;;;;;;;;10348496;28;20034;-75
2021/11/15 09:09:39;;;;;;;23.60;16.05;;;;;;;;;;10333330;28;20061;-74
2021/11/15 09:14:39;;;;;;;24.70;16.95;;;;;;;;;;10333251;28;20031;-75
2021/11/15 09:19:39;;;;;;;19.20;14.27;;;;;;;;;;10332975;28;20376;-75
2021/11/15 09:24:39;;;;;;;21.65;15.18;;;;;;;;;;10333540;28;20058;-74
2021/11/15 09:29:44;;;;;;;21.83;15.13;;;;;;;;;;10333597;28;20439;-74
2021/11/15 09:34:44;;;;;;;21.98;16.13;;;;;;;;;;10339549;28;20054;-74
2021/11/15 09:39:45;;;;;;;21.85;14.50;;;;;;;;;;10340124;28;20058;-75
2021/11/15 09:44:45;;;;;;;25.23;16.25;;;;;;;;;;10354651;28;20456;-74
2021/11/15 09:49:45;;;;;;;21.95;13.85;;;;;;;;;;10340012;28;20027;-75
2021/11/15 09:54:46;;;;;;;23.23;15.32;;;;;;;;;;10340141;28;20116;-74
2021/11/15 09:59:46;;;;;;;24.50;15.73;;;;;;;;;;10339248;28;20038;-75
2021/11/15 10:04:46;;;;;;;24.58;16.20;;;;;;;;;;10338610;28;20101;-74
2021/11/15 10:09:49;;;;;;;27.00;17.65;;;;;;;;;;10339133;28;20031;-75
2021/11/15 10:15:05;;;;;;;27.95;16.88;;;;;;;;;;10339146;28;20035;-75
2021/11/15 10:20:05;;;;;;;25.63;15.38;;;;;;;;;;10341042;28;20061;-75
2021/11/15 10:25:06;;;;;;;22.95;17.90;;;;;;;;;;10358259;28;20054;-75
2021/11/15 10:30:10;;;;;;;24.50;18.40;;;;;;;;;;10338379;28;20591;-74
2021/11/15 10:35:10;;;;;;;23.52;16.15;;;;;;;;;;10338199;28;20353;-74
2021/11/15 10:40:12;;;;;;;28.15;18.80;;;;;;;;;;10337866;28;20121;-74
2021/11/15 10:45:19;;;;;;;26.67;17.10;;;;;;;;;;10335956;28;20026;-73
2021/11/15 10:50:42;;;;;;;26.13;17.67;;;;;;;;;;10336980;28;20022;-73
2021/11/15 10:55:48;;;;;;;25.67;20.25;;;;;;;;;;10337480;28;20120;-73
2021/11/15 11:00:54;;;;;;;38.83;20.60;;;;;;;;;;10338167;28;20030;-74
2021/11/15 11:05:55;;;;;;;31.83;19.23;;;;;;;;;;10337488;28;20103;-73
2021/11/15 11:10:57;;;;;;;29.33;19.75;;;;;;;;;;10336468;28;20398;-74
2021/11/15 11:15:57;;;;;;;27.23;18.20;;;;;;;;;;10336623;28;20022;-74
2021/11/15 11:26:09;;;;;;;26.25;17.75;;;;;;;;;;10335834;28;20416;-74
2021/11/15 11:31:10;;;;;;;27.63;18.20;;;;;;;;;;10335851;28;20026;-74
2021/11/15 11:36:11;;;;;;;25.55;17.88;;;;;;;;;;10351545;28;20026;-74
2021/11/15 11:41:11;;;;;;;24.40;17.75;;;;;;;;;;10350405;28;20454;-73
2021/11/15 11:46:12;;;;;;;32.55;17.13;;;;;;;;;;10349826;28;20484;-74
2021/11/15 11:51:12;;;;;;;25.92;17.33;;;;;;;;;;10335203;28;20279;-74
2021/11/15 11:56:13;;;;;;;33.30;16.70;;;;;;;;;;10349709;28;20057;-73
2021/11/15 12:01:24;;;;;;;24.48;14.15;;;;;;;;;;10334776;28;20026;-75
2021/11/15 12:06:30;;;;;;;20.38;15.75;;;;;;;;;;10334727;28;20379;-78
2021/11/15 12:11:31;;;;;;;24.13;15.20;;;;;;;;;;10334395;28;20112;-78
2021/11/15 12:16:51;;;;;;;18.70;15.60;;;;;;;;;;10348989;28;20041;-78
2021/11/15 12:22:04;;;;;;;29.30;14.88;;;;;;;;;;10334683;28;20054;-78
2021/11/15 12:27:07;;;;;;;29.50;16.63;;;;;;;;;;10333954;28;20448;-74
2021/11/15 12:32:13;;;;;;;32.33;18.17;;;;;;;;;;10349611;28;20073;-74
2021/11/15 12:37:15;;;;;;;30.52;17.48;;;;;;;;;;10334861;28;20028;-75
2021/11/15 12:42:22;;;;;;;29.02;15.85;;;;;;;;;;10348805;28;20089;-74
2021/11/15 12:47:22;;;;;;;31.73;17.65;;;;;;;;;;10333739;28;20101;-74
2021/11/15 12:52:23;;;;;;;31.83;19.02;;;;;;;;;;10333963;28;20077;-74
2021/11/15 12:57:24;;;;;;;35.00;18.13;;;;;;;;;;10333412;28;20038;-74
2021/11/15 13:02:25;;;;;;;27.23;15.48;;;;;;;;;;10333488;28;20036;-76
2021/11/15 13:07:25;;;;;;;28.25;16.83;;;;;;;;;;10353507;28;20467;-75
2021/11/15 13:12:27;;;;;;;29.10;17.67;;;;;;;;;;10340054;28;20045;-74
2021/11/15 13:17:28;;;;;;;29.38;16.73;;;;;;;;;;10341407;28;20018;-74
2021/11/15 13:22:28;;;;;;;22.77;14.52;;;;;;;;;;10340724;28;20064;-74
2021/11/15 13:27:28;;;;;;;26.98;17.20;;;;;;;;;;10341580;28;20026;-74
2021/11/15 13:32:29;;;;;;;31.35;17.17;;;;;;;;;;10340295;28;20272;-74
2021/11/15 13:37:30;;;;;;;33.92;20.35;;;;;;;;;;10339663;28;20543;-74
2021/11/15 13:42:30;;;;;;;39.45;19.38;;;;;;;;;;10340233;28;20090;-73
2021/11/15 13:47:30;;;;;;;34.28;18.35;;;;;;;;;;10340710;28;20345;-73
2021/11/15 13:52:30;;;;;;;24.85;16.20;;;;;;;;;;10339882;28;20519;-73
2021/11/15 13:57:30;;;;;;;34.38;15.85;;;;;;;;;;10339508;28;20033;-74
2021/11/15 14:02:31;;;;;;;24.90;14.10;;;;;;;;;;10339452;28;20500;-73
2021/11/15 14:07:31;;;;;;;20.83;14.88;;;;;;;;;;10339288;28;20357;-73
2021/11/15 14:12:31;;;;;;;20.70;14.50;;;;;;;;;;10338694;28;20544;-74
2021/11/15 14:17:31;;;;;;;20.65;13.15;;;;;;;;;;10339348;28;20034;-74
2021/11/15 14:22:32;;;;;;;15.43;11.18;;;;;;;;;;10337265;28;20062;-74
2021/11/15 14:27:32;;;;;;;15.55;11.68;;;;;;;;;;10355194;28;20109;-74
2021/11/15 14:32:34;;;;;;;22.30;11.25;;;;;;;;;;10338210;28;20034;-73
2021/11/15 14:37:34;;;;;;;16.80;9.43;;;;;;;;;;10338854;28;20054;-73
2021/11/15 14:42:34;;;;;;;24.10;12.63;;;;;;;;;;10338206;28;20054;-74
2021/11/15 14:47:36;;;;;;;15.73;11.13;;;;;;;;;;10337802;28;20349;-74
2021/11/15 14:52:37;;;;;;;22.35;11.88;;;;;;;;;;10337861;28;20080;-74
2021/11/15 14:57:38;;;;;;;15.60;8.82;;;;;;;;;;10337200;28;20022;-73
2021/11/15 15:02:38;;;;;;;11.27;8.88;;;;;;;;;;10336513;28;20113;-74
2021/11/15 15:07:39;;;;;;;13.15;8.32;;;;;;;;;;10337132;28;20125;-74
2021/11/15 15:12:39;;;;;;;13.55;7.50;;;;;;;;;;10336066;28;20109;-74
2021/11/15 15:17:39;;;;;;;9.95;7.28;;;;;;;;;;10337801;28;20026;-75
2021/11/15 15:22:40;;;;;;;10.18;6.82;;;;;;;;;;10335311;28;20480;-75
2021/11/15 15:27:40;;;;;;;7.15;6.15;;;;;;;;;;10335864;28;20046;-74
2021/11/15 15:32:44;;;;;;;9.87;7.53;;;;;;;;;;10350698;28;20054;-73
2021/11/15 15:37:44;;;;;;;10.65;6.43;;;;;;;;;;10195611;28;20295;-73
2021/11/15 15:42:45;;;;;;;10.23;6.95;;;;;;;;;;10374705;28;20053;-73
2021/11/15 15:47:51;;;;;;;16.13;6.75;;;;;;;;;;10390949;28;20450;-73
2021/11/15 15:52:52;;;;;;;18.05;8.95;;;;;;;;;;10390303;28;20099;-73
2021/11/15 15:57:52;;;;;;;10.98;7.70;;;;;;;;;;10374848;28;20040;-74
2021/11/15 16:02:52;;;;;;;11.85;8.80;;;;;;;;;;10376695;28;20116;-73
2021/11/15 16:18:12;;;;;;;13.77;8.45;;;;;;;;;;10375087;28;20121;-73
2021/11/15 16:23:12;;;;;;;14.43;9.65;;;;;;;;;;10375285;28;20477;-73
2021/11/15 16:28:12;;;;;;;16.15;9.85;;;;;;;;;;10372767;28;20414;-74
2021/11/15 16:33:13;;;;;;;14.50;10.38;;;;;;;;;;10387874;28;20114;-73
2021/11/15 16:38:13;;;;;;;18.60;9.45;;;;;;;;;;10372886;28;20042;-73
2021/11/15 16:43:16;;;;;;;23.35;9.60;;;;;;;;;;10387316;28;20409;-73
2021/11/15 16:48:17;;;;;;;16.15;10.50;;;;;;;;;;10387889;28;20049;-73
2021/11/15 16:53:17;;;;;;;21.73;10.63;;;;;;;;;;10372722;28;20185;-73
2021/11/15 16:58:20;;;;;;;15.63;9.85;;;;;;;;;;10373054;28;20363;-73
2021/11/15 17:03:21;;;;;;;16.20;8.07;;;;;;;;;;10372834;28;20026;-74
2021/11/15 17:08:31;;;;;;;20.88;12.23;;;;;;;;;;10374086;28;20058;-73
2021/11/15 17:13:35;;;;;;;19.38;11.80;;;;;;;;;;10371960;28;20022;-73
2021/11/15 17:18:38;;;;;;;17.73;12.25;;;;;;;;;;10373020;28;20104;-73
2021/11/15 17:23:38;;;;;;;17.52;13.23;;;;;;;;;;10330792;28;1199746;-73
2021/11/15 17:28:39;;;;;;;21.43;11.13;;;;;;;;;;10388928;28;20034;-73
2021/11/15 17:33:39;;;;;;;21.23;11.02;;;;;;;;;;10372363;28;20271;-73
2021/11/15 17:38:39;;;;;;;20.13;12.27;;;;;;;;;;10373705;28;20080;-73
2021/11/15 17:43:39;;;;;;;17.65;12.35;;;;;;;;;;10372827;28;20472;-73
2021/11/15 17:48:40;;;;;;;19.67;12.52;;;;;;;;;;10373458;28;20034;-73
2021/11/15 17:53:55;;;;;;;16.90;11.93;;;;;;;;;;10377781;28;20360;-73
2021/11/15 18:03:58;;;;;;;15.90;11.00;;;;;;;;;;10380511;28;20033;-74
2021/11/15 18:08:59;;;;;;;19.75;12.30;;;;;;;;;;10394373;28;20352;-74
2021/11/15 18:14:24;;;;;;;17.95;10.88;;;;;;;;;;10379656;28;20026;-74
2021/11/15 18:19:24;;;;;;;17.77;12.43;;;;;;;;;;10378777;28;20080;-74
2021/11/15 18:24:29;;;;;;;22.27;12.73;;;;;;;;;;10378875;28;20458;-73
2021/11/15 18:29:36;;;;;;;30.13;15.57;;;;;;;;;;10378791;28;20065;-74
2021/11/15 18:34:37;;;;;;;23.30;14.90;;;;;;;;;;10394440;28;20057;-74
2021/11/15 18:39:37;;;;;;;34.47;15.75;;;;;;;;;;10378096;28;20041;-74
2021/11/15 18:44:38;;;;;;;26.63;14.10;;;;;;;;;;10394014;28;20026;-74
2021/11/15 18:49:40;;;;;;;18.23;13.02;;;;;;;;;;10378404;28;20117;-74
2021/11/15 18:54:40;;;;;;;16.38;11.93;;;;;;;;;;10378134;28;20017;-74
2021/11/15 18:59:40;;;;;;;20.55;13.57;;;;;;;;;;10393065;28;20426;-74
2021/11/15 19:04:43;;;;;;;37.75;17.15;;;;;;;;;;10376731;28;20120;-74
2021/11/15 19:09:44;;;;;;;24.92;14.93;;;;;;;;;;10378703;28;20160;-74
2021/11/15 19:14:44;;;;;;;29.10;15.32;;;;;;;;;;10377713;28;20113;-73
2021/11/15 19:19:46;;;;;;;24.08;13.60;;;;;;;;;;10392804;28;20026;-74
2021/11/15 19:24:49;;;;;;;28.42;14.77;;;;;;;;;;10377089;28;20060;-74
2021/11/15 19:29:49;;;;;;;26.65;16.98;;;;;;;;;;10376801;28;20487;-74
2021/11/15 19:34:53;;;;;;;30.92;18.45;;;;;;;;;;10392477;28;20045;-74
2021/11/15 19:39:54;;;;;;;28.85;22.20;;;;;;;;;;10376445;28;20034;-73
2021/11/15 19:44:54;;;;;;;40.05;22.70;;;;;;;;;;10376087;28;20029;-73
2021/11/15 19:49:54;;;;;;;45.25;24.10;;;;;;;;;;10392186;28;20021;-73
2021/11/15 19:54:54;;;;;;;51.80;24.55;;;;;;;;;;10375691;28;20060;-73
2021/11/15 19:59:54;;;;;;;36.78;20.17;;;;;;;;;;10375338;28;20030;-73
2021/11/15 20:04:56;;;;;;;46.53;24.27;;;;;;;;;;10375345;28;20113;-73
2021/11/15 20:09:56;;;;;;;44.33;24.60;;;;;;;;;;10375289;28;20034;-73
2021/11/15 20:14:57;;;;;;;50.20;25.83;;;;;;;;;;10373748;28;20124;-73
2021/11/15 20:19:57;;;;;;;40.63;25.27;;;;;;;;;;10375940;28;20063;-73
2021/11/15 20:24:58;;;;;;;46.83;28.02;;;;;;;;;;10389462;28;20430;-73
2021/11/15 20:29:58;;;;;;;54.95;29.63;;;;;;;;;;10390011;28;20247;-73
2021/11/15 20:34:58;;;;;;;53.88;30.23;;;;;;;;;;10389215;28;20040;-73
2021/11/15 20:39:59;;;;;;;52.13;28.05;;;;;;;;;;10374345;28;20030;-73
2021/11/15 20:44:59;;;;;;;51.42;26.50;;;;;;;;;;10389476;28;20105;-73
2021/11/15 20:49:59;;;;;;;61.42;26.52;;;;;;;;;;10374089;28;20084;-73
2021/11/15 20:54:59;;;;;;;55.17;27.75;;;;;;;;;;10373461;28;20040;-73
2021/11/15 21:00:00;;;;;;;69.45;30.40;;;;;;;;;;10373815;28;20459;-73
2021/11/15 21:05:00;;;;;;;63.25;29.27;;;;;;;;;;10374520;28;20117;-74
2021/11/15 21:10:00;;;;;;;51.80;30.13;;;;;;;;;;10373791;28;20058;-73
2021/11/15 21:15:00;;;;;;;49.38;24.60;;;;;;;;;;10373876;28;20033;-73
2021/11/15 21:20:01;;;;;;;62.13;29.30;;;;;;;;;;10374394;28;20371;-72
2021/11/15 21:25:14;;;;;;;67.55;35.55;;;;;;;;;;10372898;28;20054;-73
2021/11/15 21:30:14;;;;;;;59.55;30.90;;;;;;;;;;10380827;28;20025;-73
2021/11/15 21:35:15;;;;;;;56.90;27.60;;;;;;;;;;10380170;28;20472;-73
2021/11/15 21:40:17;;;;;;;53.63;32.05;;;;;;;;;;10381457;28;20036;-73
2021/11/15 21:45:20;;;;;;;61.08;34.90;;;;;;;;;;10381018;28;20021;-73
2021/11/15 21:50:21;;;;;;;53.10;33.85;;;;;;;;;;10380569;28;20440;-73
2021/11/15 21:55:22;;;;;;;63.05;32.92;;;;;;;;;;10380354;28;20118;-73
2021/11/15 22:00:23;;;;;;;70.97;38.33;;;;;;;;;;10379481;28;20038;-73
2021/11/15 22:05:24;;;;;;;67.20;38.33;;;;;;;;;;10380416;28;20029;-73
2021/11/15 22:10:25;;;;;;;64.78;34.28;;;;;;;;;;10380857;28;20030;-73
2021/11/15 22:15:25;;;;;;;69.30;37.03;;;;;;;;;;10379147;28;20087;-73
2021/11/15 22:20:26;;;;;;;70.00;35.83;;;;;;;;;;10379521;28;20034;-73
2021/11/15 22:25:26;;;;;;;77.40;40.22;;;;;;;;;;10379571;28;20054;-73
2021/11/15 22:30:26;;;;;;;71.80;35.70;;;;;;;;;;10379901;28;20037;-73
2021/11/15 22:35:26;;;;;;;63.30;33.35;;;;;;;;;;10378512;28;20034;-74
2021/11/15 22:40:27;;;;;;;69.60;32.63;;;;;;;;;;10377621;28;20121;-74
2021/11/15 22:45:27;;;;;;;76.55;34.58;;;;;;;;;;10378665;28;20026;-73
2021/11/15 22:50:27;;;;;;;76.55;36.13;;;;;;;;;;10379204;28;20026;-73
2021/11/15 22:55:28;;;;;;;70.72;32.28;;;;;;;;;;10378845;28;20523;-73
2021/11/15 23:00:29;;;;;;;82.68;36.45;;;;;;;;;;10377581;28;20033;-73
2021/11/15 23:05:29;;;;;;;66.05;36.25;;;;;;;;;;10393209;28;20452;-73
2021/11/15 23:10:30;;;;;;;77.18;37.22;;;;;;;;;;10393145;28;20022;-73
2021/11/15 23:15:30;;;;;;;66.75;36.25;;;;;;;;;;10377645;28;20030;-73
2021/11/15 23:20:30;;;;;;;89.32;40.80;;;;;;;;;;10377478;28;20061;-73
2021/11/15 23:25:31;;;;;;;85.20;39.67;;;;;;;;;;10378110;28;20403;-73
2021/11/15 23:30:31;;;;;;;93.15;38.65;;;;;;;;;;10377062;28;20639;-73
2021/11/15 23:35:32;;;;;;;86.05;35.95;;;;;;;;;;10375620;28;20034;-73
2021/11/15 23:40:32;;;;;;;77.50;36.45;;;;;;;;;;10391925;28;20088;-73
2021/11/15 23:45:38;;;;;;;73.25;33.53;;;;;;;;;;10391014;28;20041;-73
2021/11/15 23:50:38;;;;;;;69.80;33.08;;;;;;;;;;10376104;28;20108;-73
2021/11/15 23:55:38;;;;;;;79.82;34.22;;;;;;;;;;10392254;28;20121;-73
